Aviation Digital Data Service (ADDS)

Output produced by TAFs form (2350 UTC 18 February 2018)
found at http://www.aviationweather.gov/adds/tafs/
 
METAR text: RJFY 182141Z 03008KT 360V070 9999 -RA FEW005 BKN010 OVC020 08/07 Q1020 RMK 1ST005 5ST010 8SC020 A3015
Conditions at: RJFY (KANOYA (JMSDF) , JP) observed 2141 UTC 18 February 2018
Temperature: 8.0°C (46°F)
Dewpoint: 7.0°C (45°F) [RH = 93%]
Pressure (altimeter): 30.12 inches Hg (1020.0 mb)
Winds: from the NNE (30 degrees) at 9 MPH (8 knots; 4.2 m/s)
Visibility: 6 or more miles (10+ km)
Ceiling: 1000 feet AGL
Clouds: few clouds at 500 feet AGL
broken clouds at 1000 feet AGL
overcast cloud deck at 2000 feet AGL
Weather: -RA  (light rain)